Time;durP1;ratioP1;P1;durP2;ratioP2;P2;SDS_P1;SDS_P2;PMS_P1;PMS_P2;Temp;Humidity;BMP_temperature;BMP_pressure;BME280_temperature;BME280_humidity;BME280_pressure;Samples;Min_cycle;Max_cycle;Signal;HPM_P1;HPM_P2
2022/11/02 00:01:47;;;;;;;12.82;7.50;;;;;;;;;;5113857;28;20066;-83
2022/11/02 00:04:14;;;;;;;17.90;10.90;;;;;;;;;;5116580;28;20426;-83
2022/11/02 00:06:40;;;;;;;39.33;27.10;;;;;;;;;;5116474;28;20020;-83
2022/11/02 00:09:07;;;;;;;16.83;11.77;;;;;;;;;;5116329;28;20030;-83
2022/11/02 00:11:33;;;;;;;14.45;7.60;;;;;;;;;;5114052;28;20531;-83
2022/11/02 00:13:59;;;;;;;13.05;7.15;;;;;;;;;;5097979;28;20051;-83
2022/11/02 00:16:25;;;;;;;11.63;6.00;;;;;;;;;;5116220;28;20020;-82
2022/11/02 00:18:54;;;;;;;13.52;6.90;;;;;;;;;;5116251;28;20459;-82
2022/11/02 00:21:21;;;;;;;13.90;8.30;;;;;;;;;;5099337;28;20111;-82
2022/11/02 00:23:47;;;;;;;15.68;8.15;;;;;;;;;;5095714;28;20028;-82
2022/11/02 00:26:13;;;;;;;11.98;7.60;;;;;;;;;;5077581;28;20024;-83
2022/11/02 00:28:40;;;;;;;11.98;8.10;;;;;;;;;;5077396;28;20123;-83
2022/11/02 00:31:06;;;;;;;12.63;7.78;;;;;;;;;;5111762;28;20023;-83
2022/11/02 00:33:32;;;;;;;12.30;8.00;;;;;;;;;;5097768;28;20492;-83
2022/11/02 00:35:58;;;;;;;13.40;7.63;;;;;;;;;;5097659;28;20020;-83
2022/11/02 00:38:24;;;;;;;12.45;8.00;;;;;;;;;;5115776;28;20027;-83
2022/11/02 00:40:50;;;;;;;15.80;8.65;;;;;;;;;;5101515;28;20032;-83
2022/11/02 00:43:16;;;;;;;11.45;7.38;;;;;;;;;;5095474;28;20028;-83
2022/11/02 00:45:42;;;;;;;14.68;7.63;;;;;;;;;;5095317;28;20081;-83
2022/11/02 00:48:08;;;;;;;16.20;7.82;;;;;;;;;;5095258;28;20404;-83
2022/11/02 00:50:34;;;;;;;12.68;6.03;;;;;;;;;;5087671;28;20051;-82
2022/11/02 00:53:00;;;;;;;11.93;6.50;;;;;;;;;;5090680;28;20051;-83
2022/11/02 00:55:27;;;;;;;12.73;6.80;;;;;;;;;;5082133;28;20055;-83
2022/11/02 00:57:53;;;;;;;11.80;7.25;;;;;;;;;;5107349;28;20034;-83
2022/11/02 01:00:19;;;;;;;12.32;6.88;;;;;;;;;;5087748;28;20379;-83
2022/11/02 01:02:45;;;;;;;10.55;7.15;;;;;;;;;;5094993;28;20024;-83
2022/11/02 01:05:12;;;;;;;11.27;6.75;;;;;;;;;;5094998;28;20430;-82
2022/11/02 01:07:38;;;;;;;10.77;7.53;;;;;;;;;;5094919;28;20016;-82
2022/11/02 01:10:05;;;;;;;13.55;7.93;;;;;;;;;;5101384;28;20103;-82
2022/11/02 01:12:31;;;;;;;14.63;7.18;;;;;;;;;;5096602;28;20110;-83
2022/11/02 01:14:57;;;;;;;11.05;6.63;;;;;;;;;;5115256;28;20478;-83
2022/11/02 01:17:23;;;;;;;12.55;6.47;;;;;;;;;;5115102;28;20020;-82
2022/11/02 01:19:50;;;;;;;9.05;6.00;;;;;;;;;;5110146;28;20027;-82
2022/11/02 01:22:16;;;;;;;11.60;6.88;;;;;;;;;;5094635;28;20479;-82
2022/11/02 01:24:42;;;;;;;13.48;7.72;;;;;;;;;;5094428;28;20028;-82
2022/11/02 01:27:08;;;;;;;12.45;7.88;;;;;;;;;;5076390;28;20019;-82
2022/11/02 01:29:34;;;;;;;11.93;7.43;;;;;;;;;;5096474;28;20048;-82
2022/11/02 01:32:00;;;;;;;15.95;8.15;;;;;;;;;;5114783;28;20020;-82
2022/11/02 01:34:26;;;;;;;13.45;7.72;;;;;;;;;;5114712;28;20123;-82
2022/11/02 01:36:52;;;;;;;12.57;6.90;;;;;;;;;;5114379;28;20069;-82
2022/11/02 01:39:18;;;;;;;14.60;7.25;;;;;;;;;;5114315;28;20098;-82
2022/11/02 01:41:44;;;;;;;8.63;7.03;;;;;;;;;;5094247;28;20372;-82
2022/11/02 01:44:29;;;;;;;12.00;7.95;;;;;;;;;;5094266;28;20034;-82
2022/11/02 01:46:58;;;;;;;12.43;7.88;;;;;;;;;;5094183;28;20059;-83
2022/11/02 01:49:25;;;;;;;10.43;8.07;;;;;;;;;;5094049;28;20032;-82
2022/11/02 01:52:02;;;;;;;11.00;8.13;;;;;;;;;;5112576;28;20023;-82
2022/11/02 01:54:30;;;;;;;16.67;8.85;;;;;;;;;;5110999;28;20023;-82
2022/11/02 01:57:04;;;;;;;17.33;10.38;;;;;;;;;;5114220;28;20386;-82
2022/11/02 01:59:42;;;;;;;13.70;8.57;;;;;;;;;;5113142;28;20088;-83
2022/11/02 02:02:13;;;;;;;13.40;7.68;;;;;;;;;;5093931;28;20031;-82
2022/11/02 02:04:39;;;;;;;15.10;8.45;;;;;;;;;;5093759;28;20021;-82
2022/11/02 02:07:05;;;;;;;12.68;7.28;;;;;;;;;;5093905;28;20051;-82
2022/11/02 02:09:31;;;;;;;9.90;7.28;;;;;;;;;;5076572;28;20436;-82
2022/11/02 02:11:57;;;;;;;16.25;7.95;;;;;;;;;;5093680;28;20024;-82
2022/11/02 02:14:23;;;;;;;15.07;7.40;;;;;;;;;;5093818;28;20479;-82
2022/11/02 02:17:08;;;;;;;10.75;7.57;;;;;;;;;;5093708;28;20047;-82
2022/11/02 02:19:41;;;;;;;12.60;7.35;;;;;;;;;;5111961;28;20028;-82
2022/11/02 02:22:07;;;;;;;13.85;7.70;;;;;;;;;;5114077;28;20012;-82
2022/11/02 02:24:49;;;;;;;10.52;6.80;;;;;;;;;;5114000;28;20027;-82
2022/11/02 02:27:18;;;;;;;13.15;7.80;;;;;;;;;;5113847;28;20028;-82
2022/11/02 02:29:52;;;;;;;14.52;7.28;;;;;;;;;;5094543;28;20026;-82
2022/11/02 02:32:38;;;;;;;14.52;6.90;;;;;;;;;;5075298;28;20382;-82
2022/11/02 02:35:13;;;;;;;10.15;5.85;;;;;;;;;;5093471;28;20039;-82
2022/11/02 02:37:42;;;;;;;11.05;6.60;;;;;;;;;;5093464;28;20055;-82
2022/11/02 02:40:27;;;;;;;12.38;8.02;;;;;;;;;;5093508;28;20070;-82
2022/11/02 02:42:55;;;;;;;15.25;8.63;;;;;;;;;;5093490;28;20509;-82
2022/11/02 02:45:40;;;;;;;14.50;8.07;;;;;;;;;;5106551;28;20469;-82
2022/11/02 02:48:06;;;;;;;;;;;;;;;;;;5115316;28;20031;-83
2022/11/02 02:50:38;;;;;;;21.65;11.35;;;;;;;;;;5117832;28;20010;-82
2022/11/02 02:53:06;;;;;;;16.10;11.02;;;;;;;;;;5117589;28;20052;-82
2022/11/02 02:55:36;;;;;;;11.68;7.03;;;;;;;;;;5117766;28;20030;-82
2022/11/02 02:58:03;;;;;;;13.40;7.97;;;;;;;;;;5097779;28;20031;-82
2022/11/02 03:00:30;;;;;;;14.45;7.35;;;;;;;;;;5117713;28;20047;-82
2022/11/02 03:05:42;;;;;;;12.20;9.52;;;;;;;;;;5117696;28;20103;-83
2022/11/02 03:08:11;;;;;;;13.48;8.82;;;;;;;;;;5116279;28;20546;-82
2022/11/02 03:10:42;;;;;;;12.60;9.02;;;;;;;;;;5096939;28;20035;-82
2022/11/02 03:13:34;;;;;;;17.90;9.98;;;;;;;;;;5097004;28;20024;-82
2022/11/02 03:16:06;;;;;;;13.10;9.80;;;;;;;;;;5097145;28;20066;-82
2022/11/02 03:18:38;;;;;;;12.30;8.75;;;;;;;;;;5097105;28;20455;-82
2022/11/02 03:21:07;;;;;;;8.80;6.65;;;;;;;;;;5096912;28;20093;-82
2022/11/02 03:23:43;;;;;;;12.68;7.75;;;;;;;;;;5105185;28;20035;-82
2022/11/02 03:26:21;;;;;;;14.10;7.97;;;;;;;;;;5117155;28;20103;-82
2022/11/02 03:28:55;;;;;;;10.50;6.90;;;;;;;;;;5117314;28;20034;-82
2022/11/02 03:31:21;;;;;;;12.57;8.15;;;;;;;;;;5117210;28;20028;-82
2022/11/02 03:33:54;;;;;;;12.68;7.53;;;;;;;;;;5117105;28;20020;-82
2022/11/02 03:36:22;;;;;;;13.35;8.20;;;;;;;;;;5098810;28;20081;-82
2022/11/02 03:38:54;;;;;;;9.80;7.75;;;;;;;;;;5100537;28;20051;-82
2022/11/02 03:41:21;;;;;;;13.32;8.45;;;;;;;;;;5096488;28;20020;-82
2022/11/02 03:43:48;;;;;;;13.07;7.70;;;;;;;;;;5096468;28;20043;-83
2022/11/02 03:46:15;;;;;;;8.77;7.30;;;;;;;;;;5078261;28;20035;-82
2022/11/02 03:48:44;;;;;;;12.57;7.50;;;;;;;;;;5096698;28;20417;-82
2022/11/02 03:51:12;;;;;;;10.73;6.90;;;;;;;;;;5078091;28;20016;-83
2022/11/02 03:53:46;;;;;;;13.25;8.15;;;;;;;;;;5095281;28;20075;-82
2022/11/02 03:56:16;;;;;;;15.02;7.78;;;;;;;;;;5115445;28;20027;-82
2022/11/02 03:58:42;;;;;;;16.70;9.52;;;;;;;;;;5096796;28;20027;-82
2022/11/02 04:01:09;;;;;;;12.93;8.48;;;;;;;;;;5115471;28;20470;-82
2022/11/02 04:03:38;;;;;;;13.00;8.07;;;;;;;;;;5115451;28;20019;-83
2022/11/02 04:06:04;;;;;;;12.43;8.38;;;;;;;;;;5096974;28;20392;-83
2022/11/02 04:08:42;;;;;;;14.60;10.65;;;;;;;;;;5107755;28;20109;-82
2022/11/02 04:16:37;;;;;;;;;;;;;;;;;;5095516;28;20121;-82
2022/11/02 04:27:18;;;;;;;13.55;9.50;;;;;;;;;;5107160;28;20123;-82
2022/11/02 04:29:44;;;;;;;13.50;8.90;;;;;;;;;;5114611;28;20441;-82
2022/11/02 04:32:10;;;;;;;14.93;9.45;;;;;;;;;;5096713;28;20038;-82
2022/11/02 04:34:36;;;;;;;14.25;8.32;;;;;;;;;;5096886;28;20121;-82
2022/11/02 04:38:39;;;;;;;12.25;8.18;;;;;;;;;;5114898;28;20022;-82
2022/11/02 04:39:48;;;;;;;12.70;8.85;;;;;;;;;;5114630;28;20398;-83
2022/11/02 04:42:14;;;;;;;13.85;8.38;;;;;;;;;;5114769;28;20024;-82
2022/11/02 04:44:40;;;;;;;18.35;12.23;;;;;;;;;;5081121;28;20024;-82
2022/11/02 04:47:06;;;;;;;20.77;10.73;;;;;;;;;;5075864;28;20016;-82
2022/11/02 04:49:32;;;;;;;20.75;13.30;;;;;;;;;;5076086;28;20024;-82
2022/11/02 04:51:59;;;;;;;22.83;17.27;;;;;;;;;;5050447;28;1247157;-82
2022/11/02 04:54:25;;;;;;;30.25;21.75;;;;;;;;;;5100192;28;20404;-82
2022/11/02 04:56:51;;;;;;;17.90;12.23;;;;;;;;;;5095057;28;20023;-82
2022/11/02 04:59:17;;;;;;;23.10;14.88;;;;;;;;;;5076955;28;20369;-82
2022/11/02 05:01:43;;;;;;;24.40;15.05;;;;;;;;;;5096551;27;20102;-83
2022/11/02 05:04:09;;;;;;;17.35;11.25;;;;;;;;;;5089341;28;20024;-83
2022/11/02 05:06:36;;;;;;;18.75;11.27;;;;;;;;;;5110541;28;20023;-82
2022/11/02 05:09:02;;;;;;;19.98;11.63;;;;;;;;;;5113946;28;20027;-83
2022/11/02 05:11:28;;;;;;;29.30;14.95;;;;;;;;;;5112596;28;20082;-82
2022/11/02 05:13:54;;;;;;;30.02;17.35;;;;;;;;;;5113789;28;20095;-83
2022/11/02 05:16:20;;;;;;;27.00;16.05;;;;;;;;;;5095556;28;20463;-82
2022/11/02 05:18:46;;;;;;;21.35;12.52;;;;;;;;;;5095469;28;20032;-82
2022/11/02 05:21:12;;;;;;;21.58;12.73;;;;;;;;;;5113412;28;20122;-83
2022/11/02 05:23:39;;;;;;;17.70;12.98;;;;;;;;;;5110898;28;20481;-82
2022/11/02 05:26:13;;;;;;;15.65;10.90;;;;;;;;;;5113359;28;20024;-79
2022/11/02 05:28:40;;;;;;;15.98;9.02;;;;;;;;;;5113767;28;20451;-78
2022/11/02 05:31:06;;;;;;;13.43;8.75;;;;;;;;;;5113379;28;20027;-78
2022/11/02 05:33:32;;;;;;;16.13;11.85;;;;;;;;;;5114175;28;20023;-78
2022/11/02 05:35:59;;;;;;;17.63;10.77;;;;;;;;;;5114595;28;20053;-78
2022/11/02 05:38:25;;;;;;;15.80;9.70;;;;;;;;;;5096427;28;20024;-78
2022/11/02 05:40:52;;;;;;;16.30;8.98;;;;;;;;;;5106111;28;20019;-78
2022/11/02 05:43:19;;;;;;;11.95;8.30;;;;;;;;;;5106908;28;20020;-79
2022/11/02 05:45:51;;;;;;;17.05;9.43;;;;;;;;;;5112999;28;20084;-79
2022/11/02 05:48:17;;;;;;;16.33;10.05;;;;;;;;;;5114101;28;20051;-78
2022/11/02 05:50:43;;;;;;;16.95;10.52;;;;;;;;;;5113762;28;20019;-78
2022/11/02 05:53:09;;;;;;;16.95;10.38;;;;;;;;;;5113682;28;20538;-79
2022/11/02 05:55:35;;;;;;;14.50;9.48;;;;;;;;;;5113826;28;20028;-78
2022/11/02 05:58:01;;;;;;;13.85;9.10;;;;;;;;;;5114234;28;20497;-79
2022/11/02 06:00:28;;;;;;;22.63;14.13;;;;;;;;;;5105615;28;20021;-78
2022/11/02 06:02:57;;;;;;;35.92;24.27;;;;;;;;;;5097141;28;20022;-78
2022/11/02 06:05:24;;;;;;;33.03;21.50;;;;;;;;;;5110892;28;20375;-78
2022/11/02 06:07:50;;;;;;;31.42;21.10;;;;;;;;;;5104508;28;20019;-78
2022/11/02 06:10:17;;;;;;;29.17;21.42;;;;;;;;;;5113142;28;20378;-78
2022/11/02 06:12:43;;;;;;;27.95;20.15;;;;;;;;;;5095903;28;20043;-79
2022/11/02 06:15:10;;;;;;;30.42;18.95;;;;;;;;;;5114082;28;20027;-78
2022/11/02 06:17:37;;;;;;;25.83;18.15;;;;;;;;;;5113986;28;20016;-78
2022/11/02 06:20:03;;;;;;;23.75;15.63;;;;;;;;;;5113941;28;20019;-78
2022/11/02 06:22:30;;;;;;;25.35;18.10;;;;;;;;;;5113367;28;20019;-78
2022/11/02 06:24:56;;;;;;;21.33;13.55;;;;;;;;;;5113065;28;20028;-78
2022/11/02 06:27:22;;;;;;;20.05;13.40;;;;;;;;;;5113108;28;20020;-79
2022/11/02 06:29:48;;;;;;;20.27;13.10;;;;;;;;;;5110494;28;20471;-80
2022/11/02 06:32:14;;;;;;;17.45;11.25;;;;;;;;;;5112706;28;20028;-79
2022/11/02 06:34:40;;;;;;;16.27;10.60;;;;;;;;;;5113687;28;20019;-77
2022/11/02 06:37:06;;;;;;;19.45;12.75;;;;;;;;;;5116824;28;20024;-80
2022/11/02 06:39:32;;;;;;;18.35;11.77;;;;;;;;;;5112731;28;20612;-79
2022/11/02 06:41:58;;;;;;;18.95;11.65;;;;;;;;;;5115231;28;20023;-78
2022/11/02 06:44:24;;;;;;;18.58;11.57;;;;;;;;;;5098698;28;20035;-77
2022/11/02 06:46:50;;;;;;;20.65;13.52;;;;;;;;;;5123821;28;20022;-77
2022/11/02 06:49:16;;;;;;;19.10;13.93;;;;;;;;;;5100605;28;20023;-77
2022/11/02 06:51:42;;;;;;;18.50;13.13;;;;;;;;;;5116724;28;20106;-79
2022/11/02 06:54:09;;;;;;;21.67;13.98;;;;;;;;;;5133396;27;20031;-78
2022/11/02 06:56:35;;;;;;;23.08;13.85;;;;;;;;;;5130548;28;20063;-79
2022/11/02 06:59:01;;;;;;;15.95;11.85;;;;;;;;;;5128806;28;20097;-79
2022/11/02 07:01:27;;;;;;;19.98;13.57;;;;;;;;;;5130807;28;20105;-79
2022/11/02 07:03:53;;;;;;;24.15;15.93;;;;;;;;;;5131387;28;20034;-81
2022/11/02 07:06:19;;;;;;;21.20;13.75;;;;;;;;;;5130882;28;20087;-77
2022/11/02 07:08:45;;;;;;;20.10;13.77;;;;;;;;;;5118123;28;20035;-80
2022/11/02 07:11:15;;;;;;;17.15;12.10;;;;;;;;;;5110470;28;20023;-78
2022/11/02 07:13:41;;;;;;;23.48;11.80;;;;;;;;;;5131247;28;20482;-79
2022/11/02 07:16:07;;;;;;;22.52;12.98;;;;;;;;;;5124502;28;20028;-78
2022/11/02 07:18:33;;;;;;;21.88;13.80;;;;;;;;;;5130929;28;20039;-80
2022/11/02 07:21:00;;;;;;;21.52;13.43;;;;;;;;;;5125720;28;20112;-79
2022/11/02 07:23:26;;;;;;;18.38;10.32;;;;;;;;;;5118999;27;20138;-80
2022/11/02 07:25:52;;;;;;;14.38;9.70;;;;;;;;;;5129042;28;20059;-80
2022/11/02 07:28:19;;;;;;;21.73;10.18;;;;;;;;;;5126028;28;20587;-75
2022/11/02 07:30:45;;;;;;;20.75;9.77;;;;;;;;;;5114785;28;20031;-74
2022/11/02 07:33:13;;;;;;;17.20;12.18;;;;;;;;;;5125836;27;20019;-74
2022/11/02 07:35:40;;;;;;;30.02;20.75;;;;;;;;;;5130239;27;20539;-74
2022/11/02 07:38:07;;;;;;;20.83;11.70;;;;;;;;;;5132932;27;20486;-74
2022/11/02 07:40:34;;;;;;;18.48;11.02;;;;;;;;;;5122783;27;20028;-79
2022/11/02 07:43:00;;;;;;;19.00;11.02;;;;;;;;;;5114203;28;20041;-82
2022/11/02 07:45:28;;;;;;;19.75;11.25;;;;;;;;;;5126555;27;20482;-80
2022/11/02 07:47:56;;;;;;;17.13;11.05;;;;;;;;;;5117878;27;20110;-83
2022/11/02 07:50:26;;;;;;;19.45;11.85;;;;;;;;;;5109233;27;20418;-81
2022/11/02 07:52:53;;;;;;;22.23;15.82;;;;;;;;;;5117161;27;20058;-80
2022/11/02 07:55:20;;;;;;;28.92;21.63;;;;;;;;;;5114060;28;20040;-80
2022/11/02 07:57:59;;;;;;;19.02;13.07;;;;;;;;;;5143811;27;20039;-87
2022/11/02 08:00:26;;;;;;;15.93;9.68;;;;;;;;;;5137519;27;20112;-85
2022/11/02 08:02:56;;;;;;;14.30;9.25;;;;;;;;;;5122868;27;20023;-83
2022/11/02 08:05:23;;;;;;;16.35;8.90;;;;;;;;;;5108172;27;20035;-80
2022/11/02 08:07:55;;;;;;;17.63;9.40;;;;;;;;;;5120511;27;20107;-80
2022/11/02 08:10:22;;;;;;;15.20;9.20;;;;;;;;;;5125000;27;20031;-81
2022/11/02 08:12:48;;;;;;;16.40;8.95;;;;;;;;;;5130264;27;20016;-83
2022/11/02 08:15:14;;;;;;;13.27;9.38;;;;;;;;;;5125698;27;20031;-83
2022/11/02 08:17:40;;;;;;;36.50;28.08;;;;;;;;;;5114205;28;20015;-81
2022/11/02 08:20:12;;;;;;;29.80;23.15;;;;;;;;;;5115010;27;20059;-85
2022/11/02 08:22:39;;;;;;;31.63;20.52;;;;;;;;;;5112790;28;20036;-82
2022/11/02 08:25:06;;;;;;;21.40;15.90;;;;;;;;;;5113802;28;20035;-84
2022/11/02 08:27:35;;;;;;;21.60;12.90;;;;;;;;;;5110049;27;20039;-81
2022/11/02 08:30:02;;;;;;;19.08;12.77;;;;;;;;;;5129558;27;20038;-83
2022/11/02 08:32:28;;;;;;;13.43;9.55;;;;;;;;;;5112142;28;20382;-78
2022/11/02 08:34:54;;;;;;;17.55;11.65;;;;;;;;;;5113644;27;20046;-83
2022/11/02 08:37:20;;;;;;;21.63;11.60;;;;;;;;;;5116991;27;20607;-83
2022/11/02 08:39:46;;;;;;;15.23;11.35;;;;;;;;;;5130458;27;20026;-90
2022/11/02 08:42:12;;;;;;;18.80;10.75;;;;;;;;;;5128162;27;20023;-85
2022/11/02 08:44:41;;;;;;;14.15;9.90;;;;;;;;;;5140896;27;20409;-86
2022/11/02 08:47:07;;;;;;;16.85;11.20;;;;;;;;;;5131680;27;20030;-83
2022/11/02 08:49:51;;;;;;;24.23;14.00;;;;;;;;;;5133812;27;20027;-81
2022/11/02 08:52:18;;;;;;;50.38;21.67;;;;;;;;;;5138854;27;20180;-83
2022/11/02 08:54:44;;;;;;;65.65;25.23;;;;;;;;;;5139719;27;20031;-80
2022/11/02 08:57:10;;;;;;;86.88;37.17;;;;;;;;;;5133292;27;20096;-83
2022/11/02 08:59:36;;;;;;;95.88;53.50;;;;;;;;;;5131863;27;20126;-81
2022/11/02 09:02:02;;;;;;;107.32;62.25;;;;;;;;;;5139838;27;20015;-82
2022/11/02 09:04:28;;;;;;;76.35;49.08;;;;;;;;;;5133326;27;20390;-84
2022/11/02 09:06:54;;;;;;;23.45;15.13;;;;;;;;;;5130057;27;20031;-84
2022/11/02 09:09:20;;;;;;;48.28;31.52;;;;;;;;;;5118051;27;20429;-81
2022/11/02 09:11:49;;;;;;;37.45;22.90;;;;;;;;;;5104303;27;20663;-82
2022/11/02 09:14:15;;;;;;;33.50;20.27;;;;;;;;;;5145091;27;20019;-82
2022/11/02 09:16:41;;;;;;;28.42;16.75;;;;;;;;;;5146979;27;20030;-81
2022/11/02 09:19:07;;;;;;;22.73;15.43;;;;;;;;;;5149846;27;20076;-78
2022/11/02 09:21:33;;;;;;;18.42;12.82;;;;;;;;;;5134091;27;20142;-82
2022/11/02 09:23:59;;;;;;;20.17;12.48;;;;;;;;;;5144894;27;20026;-80
2022/11/02 09:26:26;;;;;;;20.45;13.32;;;;;;;;;;5138297;27;20077;-81
2022/11/02 09:28:52;;;;;;;23.42;14.98;;;;;;;;;;5131894;27;20027;-84
2022/11/02 09:31:18;;;;;;;20.75;13.48;;;;;;;;;;5131145;27;20033;-83
2022/11/02 09:33:44;;;;;;;15.70;10.68;;;;;;;;;;5109239;27;20035;-82
2022/11/02 09:36:10;;;;;;;17.17;10.88;;;;;;;;;;5114610;27;20383;-83
2022/11/02 09:38:37;;;;;;;16.20;10.27;;;;;;;;;;5133747;27;20027;-84
2022/11/02 09:41:21;;;;;;;20.05;9.73;;;;;;;;;;5113323;27;20457;-82
2022/11/02 09:43:47;;;;;;;16.45;10.20;;;;;;;;;;5133322;27;20023;-82
2022/11/02 09:46:18;;;;;;;15.07;10.18;;;;;;;;;;5143921;27;20030;-83
2022/11/02 09:48:56;;;;;;;18.65;10.18;;;;;;;;;;5134404;27;20039;-84
2022/11/02 09:51:25;;;;;;;14.88;8.98;;;;;;;;;;5109568;27;20035;-84
2022/11/02 09:53:51;;;;;;;26.70;13.73;;;;;;;;;;5106169;27;20783;-84
2022/11/02 09:56:21;;;;;;;45.67;19.92;;;;;;;;;;5112027;27;20034;-82
2022/11/02 09:59:05;;;;;;;47.42;19.92;;;;;;;;;;5131976;27;20031;-82
2022/11/02 10:01:50;;;;;;;55.70;22.92;;;;;;;;;;5131705;27;20019;-81
2022/11/02 10:04:16;;;;;;;51.92;20.60;;;;;;;;;;5115059;27;20020;-88
2022/11/02 10:06:45;;;;;;;33.80;16.45;;;;;;;;;;5109530;27;20023;-83
2022/11/02 10:09:11;;;;;;;29.15;14.88;;;;;;;;;;5114839;27;20504;-87
2022/11/02 10:11:56;;;;;;;21.75;13.10;;;;;;;;;;5114248;27;20023;-83
2022/11/02 10:14:32;;;;;;;22.10;13.13;;;;;;;;;;5132927;27;20489;-84
2022/11/02 10:17:04;;;;;;;35.20;16.95;;;;;;;;;;5133632;27;20027;-83
2022/11/02 10:19:32;;;;;;;38.38;15.63;;;;;;;;;;5133076;27;20462;-83
2022/11/02 10:21:59;;;;;;;32.90;15.02;;;;;;;;;;5125590;27;20023;-84
2022/11/02 10:24:36;;;;;;;28.08;13.73;;;;;;;;;;5137151;27;20018;-82
2022/11/02 10:27:05;;;;;;;25.95;13.95;;;;;;;;;;5124105;27;20027;-80
2022/11/02 10:29:51;;;;;;;18.70;10.60;;;;;;;;;;5131793;27;20366;-84
2022/11/02 10:32:17;;;;;;;19.52;10.55;;;;;;;;;;5117629;27;20558;-82
2022/11/02 10:34:44;;;;;;;16.38;10.55;;;;;;;;;;5129931;27;20020;-85
2022/11/02 10:37:29;;;;;;;18.33;10.13;;;;;;;;;;5131018;28;20512;-84
2022/11/02 10:40:04;;;;;;;19.05;9.45;;;;;;;;;;5127832;27;20031;-83
2022/11/02 10:42:49;;;;;;;14.68;7.85;;;;;;;;;;5121235;28;20019;-84
2022/11/02 10:45:15;;;;;;;;;;;;;;;;;;5116092;28;20024;-87
2022/11/02 10:47:46;;;;;;;25.80;10.02;;;;;;;;;;5100898;28;19908;-87
2022/11/02 10:50:12;;;;;;;15.73;8.73;;;;;;;;;;5115768;28;20023;-87
2022/11/02 10:52:43;;;;;;;13.63;7.60;;;;;;;;;;5124378;27;20482;-86
2022/11/02 10:55:30;;;;;;;15.82;8.55;;;;;;;;;;5111499;28;20066;-84
2022/11/02 10:57:58;;;;;;;16.65;7.63;;;;;;;;;;5113656;28;20047;-87
2022/11/02 11:00:26;;;;;;;15.35;8.25;;;;;;;;;;5110470;28;20471;-86
2022/11/02 11:03:08;;;;;;;17.38;7.85;;;;;;;;;;5112708;28;20035;-85
2022/11/02 11:05:35;;;;;;;12.63;7.55;;;;;;;;;;5107385;28;20043;-84
2022/11/02 11:08:02;;;;;;;11.32;7.32;;;;;;;;;;5107221;27;20055;-84
2022/11/02 11:10:34;;;;;;;19.77;8.75;;;;;;;;;;5130973;27;20027;-85
2022/11/02 11:13:06;;;;;;;14.10;9.52;;;;;;;;;;5136968;27;20505;-86
2022/11/02 11:15:33;;;;;;;12.52;7.28;;;;;;;;;;5134244;27;20026;-85
2022/11/02 11:17:59;;;;;;;11.68;7.80;;;;;;;;;;5130620;27;20026;-88
2022/11/02 11:20:33;;;;;;;16.90;9.00;;;;;;;;;;5129152;27;20044;-85
2022/11/02 11:23:23;;;;;;;13.40;8.40;;;;;;;;;;5131446;27;20482;-89
2022/11/02 11:26:03;;;;;;;16.40;8.90;;;;;;;;;;5117697;27;20486;-87
2022/11/02 11:28:39;;;;;;;11.10;7.18;;;;;;;;;;5112893;27;20023;-86
2022/11/02 11:31:10;;;;;;;12.13;7.35;;;;;;;;;;5114007;27;20598;-85
2022/11/02 11:34:02;;;;;;;11.13;6.95;;;;;;;;;;5133937;27;20023;-86
2022/11/02 11:36:36;;;;;;;15.80;8.32;;;;;;;;;;5128534;27;20031;-83
2022/11/02 11:39:04;;;;;;;8.85;7.10;;;;;;;;;;5118681;27;20023;-87
2022/11/02 11:41:31;;;;;;;13.00;7.47;;;;;;;;;;5132146;27;20205;-85
2022/11/02 11:43:58;;;;;;;14.73;7.25;;;;;;;;;;5132105;27;20042;-83
2022/11/02 11:46:37;;;;;;;16.55;7.90;;;;;;;;;;5133903;27;20023;-85
2022/11/02 11:49:29;;;;;;;15.57;7.45;;;;;;;;;;5111456;27;20027;-94
2022/11/02 11:51:57;;;;;;;14.00;7.55;;;;;;;;;;5131525;27;20080;-85
2022/11/02 11:54:27;;;;;;;10.10;6.82;;;;;;;;;;5115669;27;20398;-83
2022/11/02 11:57:12;;;;;;;11.57;6.68;;;;;;;;;;5130677;27;20474;-84
2022/11/02 11:59:48;;;;;;;9.65;5.88;;;;;;;;;;5131902;27;20031;-81
2022/11/02 12:02:34;;;;;;;15.43;7.35;;;;;;;;;;5127371;27;20440;-83
2022/11/02 12:05:00;;;;;;;15.30;8.90;;;;;;;;;;5107289;27;20153;-83
2022/11/02 12:07:32;;;;;;;19.17;7.38;;;;;;;;;;5131981;27;20019;-86
2022/11/02 12:09:58;;;;;;;15.82;8.40;;;;;;;;;;5115078;27;20386;-84
2022/11/02 12:12:32;;;;;;;10.15;6.38;;;;;;;;;;5133866;27;20035;-86
2022/11/02 12:15:07;;;;;;;17.98;9.07;;;;;;;;;;5114646;27;20023;-85
2022/11/02 12:17:33;;;;;;;15.32;6.90;;;;;;;;;;5115928;27;20490;-85
2022/11/02 12:20:06;;;;;;;18.23;7.53;;;;;;;;;;5125684;27;20035;-81
2022/11/02 12:22:41;;;;;;;10.00;5.97;;;;;;;;;;5130399;27;20023;-83
2022/11/02 12:25:07;;;;;;;11.48;6.28;;;;;;;;;;5121751;27;20043;-82
2022/11/02 12:27:44;;;;;;;14.27;6.82;;;;;;;;;;5133530;27;20390;-86
2022/11/02 12:30:33;;;;;;;14.40;6.22;;;;;;;;;;5133555;27;20038;-85
2022/11/02 12:33:18;;;;;;;22.65;9.82;;;;;;;;;;5119574;27;20047;-83
2022/11/02 12:35:44;;;;;;;11.18;6.25;;;;;;;;;;5133482;27;20027;-86
2022/11/02 12:38:13;;;;;;;14.20;6.82;;;;;;;;;;5119590;27;20105;-85
2022/11/02 12:40:42;;;;;;;13.23;5.68;;;;;;;;;;5107371;27;20035;-85
2022/11/02 12:43:37;;;;;;;15.70;7.25;;;;;;;;;;5115991;27;20129;-86
2022/11/02 12:46:22;;;;;;;15.13;6.20;;;;;;;;;;5106936;27;20058;-81
2022/11/02 12:49:06;;;;;;;18.88;6.75;;;;;;;;;;5130769;27;20027;-84
2022/11/02 12:51:32;;;;;;;;;;;;;;;;;;5114313;27;20494;-84
2022/11/02 12:54:00;;;;;;;18.80;8.55;;;;;;;;;;5131525;27;19915;-86
2022/11/02 12:56:31;;;;;;;15.77;6.32;;;;;;;;;;5132456;27;20114;-85
2022/11/02 12:58:58;;;;;;;14.70;6.88;;;;;;;;;;5135193;27;20639;-84
2022/11/02 13:01:27;;;;;;;14.70;7.20;;;;;;;;;;5125733;27;20035;-84
2022/11/02 13:04:05;;;;;;;11.98;6.60;;;;;;;;;;5120684;27;20023;-85
2022/11/02 13:06:35;;;;;;;12.15;6.97;;;;;;;;;;5127944;27;20019;-84
2022/11/02 13:09:11;;;;;;;12.10;6.18;;;;;;;;;;5096247;28;20020;-83
2022/11/02 13:11:50;;;;;;;17.08;6.57;;;;;;;;;;5105269;27;20177;-82
2022/11/02 13:14:20;;;;;;;11.57;6.60;;;;;;;;;;5132577;27;20015;-82
2022/11/02 13:16:49;;;;;;;13.05;6.78;;;;;;;;;;5124116;27;20521;-83
2022/11/02 13:19:20;;;;;;;12.35;6.93;;;;;;;;;;5124793;27;20494;-82
2022/11/02 13:21:55;;;;;;;16.05;7.45;;;;;;;;;;5132997;27;20073;-85
2022/11/02 13:24:27;;;;;;;12.27;6.90;;;;;;;;;;5128849;27;20031;-82
2022/11/02 13:26:53;;;;;;;12.18;6.03;;;;;;;;;;5119113;27;20101;-83
2022/11/02 13:29:38;;;;;;;13.70;6.45;;;;;;;;;;5150932;27;20031;-85
2022/11/02 13:32:23;;;;;;;14.57;6.05;;;;;;;;;;5119050;27;20030;-83
2022/11/02 13:34:53;;;;;;;14.90;6.78;;;;;;;;;;5112847;27;20031;-86
2022/11/02 13:37:22;;;;;;;13.55;6.60;;;;;;;;;;5129725;27;20400;-84
2022/11/02 13:39:58;;;;;;;17.92;7.05;;;;;;;;;;5129699;27;20046;-85
2022/11/02 13:42:30;;;;;;;12.18;6.13;;;;;;;;;;5110779;27;20200;-85
2022/11/02 13:45:15;;;;;;;18.08;12.30;;;;;;;;;;5122813;27;20022;-82
2022/11/02 13:47:41;;;;;;;;;;;;;;;;;;5131360;27;20098;-81
2022/11/02 13:50:11;;;;;;;13.10;7.10;;;;;;;;;;5111419;28;19950;-81
2022/11/02 13:52:43;;;;;;;14.15;5.35;;;;;;;;;;5101834;27;20244;-84
2022/11/02 13:55:15;;;;;;;12.77;6.03;;;;;;;;;;5136027;27;20102;-81
2022/11/02 13:57:46;;;;;;;11.18;5.55;;;;;;;;;;5127193;27;20029;-84
2022/11/02 14:00:30;;;;;;;12.98;6.82;;;;;;;;;;5123001;27;20023;-85
2022/11/02 14:02:56;;;;;;;12.07;6.10;;;;;;;;;;5099620;28;20085;-85
2022/11/02 14:05:26;;;;;;;11.55;5.68;;;;;;;;;;5113166;28;20024;-81
2022/11/02 14:07:53;;;;;;;12.90;5.35;;;;;;;;;;5095442;28;20096;-89
2022/11/02 14:10:19;;;;;;;10.35;5.20;;;;;;;;;;5124782;27;20112;-81
2022/11/02 14:12:49;;;;;;;15.32;5.90;;;;;;;;;;5133587;27;20026;-86
2022/11/02 14:15:15;;;;;;;13.63;5.97;;;;;;;;;;5141019;27;20031;-85
2022/11/02 14:17:53;;;;;;;11.43;5.72;;;;;;;;;;5133042;27;20142;-85
2022/11/02 14:20:37;;;;;;;18.10;6.40;;;;;;;;;;5115439;27;20084;-85
2022/11/02 14:23:21;;;;;;;11.60;5.60;;;;;;;;;;5133579;27;20101;-83
2022/11/02 14:25:47;;;;;;;;;;;;;;;;;;5106013;28;20031;-84
2022/11/02 14:28:19;;;;;;;13.27;6.03;;;;;;;;;;5094470;28;20321;-83
2022/11/02 14:30:47;;;;;;;12.80;6.93;;;;;;;;;;5115322;28;20587;-83
2022/11/02 14:33:19;;;;;;;16.45;6.18;;;;;;;;;;5114631;28;20023;-84
2022/11/02 14:35:52;;;;;;;12.98;5.50;;;;;;;;;;5133223;27;20026;-82
2022/11/02 14:38:28;;;;;;;11.13;5.13;;;;;;;;;;5132558;28;20083;-80
2022/11/02 14:41:03;;;;;;;11.60;5.78;;;;;;;;;;5131379;28;20019;-83
2022/11/02 14:43:48;;;;;;;10.48;4.82;;;;;;;;;;5135803;27;20044;-85
2022/11/02 14:46:38;;;;;;;10.23;4.50;;;;;;;;;;5138325;27;20050;-82
2022/11/02 14:49:04;;;;;;;13.60;6.07;;;;;;;;;;5138153;27;20486;-84
2022/11/02 14:51:32;;;;;;;11.23;5.45;;;;;;;;;;5138116;27;20485;-81
2022/11/02 14:54:15;;;;;;;11.45;5.53;;;;;;;;;;5136907;27;20070;-83
2022/11/02 14:56:50;;;;;;;9.50;5.20;;;;;;;;;;5138246;27;20076;-80
2022/11/02 14:59:22;;;;;;;17.35;5.30;;;;;;;;;;5130408;27;20036;-85
2022/11/02 15:02:07;;;;;;;15.27;6.03;;;;;;;;;;5131462;27;20107;-82